sensor_id;sensor_type;location;lat;lon;timestamp;P1;durP1;ratioP1;P2;durP2;ratioP2
63955;SDS011;50131;52.084;5.228;2022-08-19T00:02:58;14.1;;;12.9;;
63955;SDS011;50131;52.084;5.228;2022-08-19T00:04:36;14.5;;;13.3;;
63955;SDS011;50131;52.084;5.228;2022-08-19T00:06:12;15.9;;;14.6;;
63955;SDS011;50131;52.084;5.228;2022-08-19T00:09:27;14.0;;;12.7;;
63955;SDS011;50131;52.084;5.228;2022-08-19T00:11:03;14.7;;;13.4;;
63955;SDS011;50131;52.084;5.228;2022-08-19T00:12:40;15.8;;;14.5;;
63955;SDS011;50131;52.084;5.228;2022-08-19T00:14:18;14.8;;;13.4;;
63955;SDS011;50131;52.084;5.228;2022-08-19T00:17:31;12.8;;;11.8;;
63955;SDS011;50131;52.084;5.228;2022-08-19T00:19:08;16.3;;;15.1;;
63955;SDS011;50131;52.084;5.228;2022-08-19T00:20:45;16.0;;;14.8;;
63955;SDS011;50131;52.084;5.228;2022-08-19T00:23:58;17.61;;;16.2;;
63955;SDS011;50131;52.084;5.228;2022-08-19T00:25:36;20.41;;;18.8;;
63955;SDS011;50131;52.084;5.228;2022-08-19T00:27:12;18.8;;;17.41;;
63955;SDS011;50131;52.084;5.228;2022-08-19T00:30:27;14.1;;;12.9;;
63955;SDS011;50131;52.084;5.228;2022-08-19T00:32:04;17.0;;;15.9;;
63955;SDS011;50131;52.084;5.228;2022-08-19T00:33:41;21.1;;;19.5;;
63955;SDS011;50131;52.084;5.228;2022-08-19T00:35:18;19.61;;;18.3;;
63955;SDS011;50131;52.084;5.228;2022-08-19T00:38:31;16.0;;;14.5;;
63955;SDS011;50131;52.084;5.228;2022-08-19T00:40:10;18.8;;;17.5;;
63955;SDS011;50131;52.084;5.228;2022-08-19T00:41:49;18.61;;;17.3;;
63955;SDS011;50131;52.084;5.228;2022-08-19T00:45:05;21.3;;;19.91;;
63955;SDS011;50131;52.084;5.228;2022-08-19T00:46:47;27.6;;;25.9;;
63955;SDS011;50131;52.084;5.228;2022-08-19T00:48:26;15.1;;;14.0;;
63955;SDS011;50131;52.084;5.228;2022-08-19T00:50:03;14.9;;;13.6;;
63955;SDS011;50131;52.084;5.228;2022-08-19T00:53:23;16.61;;;15.3;;
63955;SDS011;50131;52.084;5.228;2022-08-19T00:55:04;16.9;;;15.6;;
63955;SDS011;50131;52.084;5.228;2022-08-19T00:56:44;15.9;;;14.5;;
63955;SDS011;50131;52.084;5.228;2022-08-19T00:58:22;14.7;;;13.6;;
63955;SDS011;50131;52.084;5.228;2022-08-19T01:01:46;16.0;;;14.7;;
63955;SDS011;50131;52.084;5.228;2022-08-19T01:03:22;17.7;;;16.2;;
63955;SDS011;50131;52.084;5.228;2022-08-19T01:05:00;18.41;;;17.0;;
63955;SDS011;50131;52.084;5.228;2022-08-19T01:06:41;17.61;;;16.3;;
63955;SDS011;50131;52.084;5.228;2022-08-19T01:09:55;36.81;;;34.6;;
63955;SDS011;50131;52.084;5.228;2022-08-19T01:11:33;22.2;;;20.41;;
63955;SDS011;50131;52.084;5.228;2022-08-19T01:13:19;20.8;;;19.0;;
63955;SDS011;50131;52.084;5.228;2022-08-19T01:14:58;19.2;;;17.8;;
63955;SDS011;50131;52.084;5.228;2022-08-19T01:18:15;17.5;;;16.0;;
63955;SDS011;50131;52.084;5.228;2022-08-19T01:19:53;14.7;;;13.5;;
63955;SDS011;50131;52.084;5.228;2022-08-19T01:21:31;13.7;;;12.5;;
63955;SDS011;50131;52.084;5.228;2022-08-19T01:23:20;19.8;;;18.3;;
63955;SDS011;50131;52.084;5.228;2022-08-19T01:26:37;19.91;;;18.41;;
63955;SDS011;50131;52.084;5.228;2022-08-19T01:28:17;12.5;;;11.4;;
63955;SDS011;50131;52.084;5.228;2022-08-19T01:29:54;12.7;;;11.6;;
63955;SDS011;50131;52.084;5.228;2022-08-19T01:33:07;12.0;;;11.0;;
63955;SDS011;50131;52.084;5.228;2022-08-19T01:34:46;13.7;;;12.4;;
63955;SDS011;50131;52.084;5.228;2022-08-19T01:36:23;15.9;;;14.6;;
63955;SDS011;50131;52.084;5.228;2022-08-19T01:38:07;12.5;;;11.3;;
63955;SDS011;50131;52.084;5.228;2022-08-19T01:41:23;11.3;;;10.3;;
63955;SDS011;50131;52.084;5.228;2022-08-19T01:43:00;12.5;;;11.4;;
63955;SDS011;50131;52.084;5.228;2022-08-19T01:44:37;21.5;;;19.8;;
63955;SDS011;50131;52.084;5.228;2022-08-19T01:47:52;20.5;;;19.11;;
63955;SDS011;50131;52.084;5.228;2022-08-19T01:49:29;18.3;;;16.9;;
63955;SDS011;50131;52.084;5.228;2022-08-19T01:51:06;13.0;;;11.8;;
63955;SDS011;50131;52.084;5.228;2022-08-19T01:52:45;13.5;;;12.2;;
63955;SDS011;50131;52.084;5.228;2022-08-19T01:56:00;13.4;;;12.1;;
63955;SDS011;50131;52.084;5.228;2022-08-19T01:57:38;13.8;;;12.5;;
63955;SDS011;50131;52.084;5.228;2022-08-19T01:59:20;15.1;;;12.7;;
63955;SDS011;50131;52.084;5.228;2022-08-19T02:00:59;14.4;;;12.9;;
63955;SDS011;50131;52.084;5.228;2022-08-19T02:04:12;12.8;;;11.7;;
63955;SDS011;50131;52.084;5.228;2022-08-19T02:05:54;12.8;;;11.7;;
63955;SDS011;50131;52.084;5.228;2022-08-19T02:07:32;14.3;;;12.9;;
63955;SDS011;50131;52.084;5.228;2022-08-19T02:10:45;13.6;;;12.3;;
63955;SDS011;50131;52.084;5.228;2022-08-19T02:12:22;16.7;;;15.2;;
63955;SDS011;50131;52.084;5.228;2022-08-19T02:13:58;17.2;;;15.7;;
63955;SDS011;50131;52.084;5.228;2022-08-19T02:17:13;17.0;;;15.3;;
63955;SDS011;50131;52.084;5.228;2022-08-19T02:18:50;20.8;;;19.0;;
63955;SDS011;50131;52.084;5.228;2022-08-19T02:20:26;20.8;;;19.0;;
63955;SDS011;50131;52.084;5.228;2022-08-19T02:22:03;18.8;;;17.2;;
63955;SDS011;50131;52.084;5.228;2022-08-19T02:25:16;20.7;;;19.0;;
63955;SDS011;50131;52.084;5.228;2022-08-19T02:26:52;21.9;;;20.11;;
63955;SDS011;50131;52.084;5.228;2022-08-19T02:28:29;22.4;;;20.41;;
63955;SDS011;50131;52.084;5.228;2022-08-19T02:31:47;22.5;;;20.3;;
63955;SDS011;50131;52.084;5.228;2022-08-19T02:33:23;24.1;;;22.1;;
63955;SDS011;50131;52.084;5.228;2022-08-19T02:35:00;25.2;;;23.3;;
63955;SDS011;50131;52.084;5.228;2022-08-19T02:36:36;26.0;;;24.1;;
63955;SDS011;50131;52.084;5.228;2022-08-19T02:40:06;28.8;;;26.5;;
63955;SDS011;50131;52.084;5.228;2022-08-19T02:41:44;28.3;;;26.0;;
63955;SDS011;50131;52.084;5.228;2022-08-19T02:43:20;21.2;;;19.0;;
63955;SDS011;50131;52.084;5.228;2022-08-19T02:44:58;18.61;;;16.9;;
63955;SDS011;50131;52.084;5.228;2022-08-19T02:48:11;17.5;;;15.7;;
63955;SDS011;50131;52.084;5.228;2022-08-19T02:49:49;18.5;;;14.8;;
63955;SDS011;50131;52.084;5.228;2022-08-19T02:51:27;16.4;;;14.2;;
63955;SDS011;50131;52.084;5.228;2022-08-19T02:54:45;16.5;;;14.9;;
63955;SDS011;50131;52.084;5.228;2022-08-19T02:56:22;24.1;;;22.1;;
63955;SDS011;50131;52.084;5.228;2022-08-19T02:57:59;21.9;;;20.0;;
63955;SDS011;50131;52.084;5.228;2022-08-19T02:59:36;21.9;;;20.0;;
63955;SDS011;50131;52.084;5.228;2022-08-19T03:02:57;16.3;;;13.5;;
63955;SDS011;50131;52.084;5.228;2022-08-19T03:04:33;18.61;;;16.8;;
63955;SDS011;50131;52.084;5.228;2022-08-19T03:06:10;20.3;;;18.41;;
63955;SDS011;50131;52.084;5.228;2022-08-19T03:09:25;19.3;;;17.5;;
63955;SDS011;50131;52.084;5.228;2022-08-19T03:11:03;19.41;;;17.61;;
63955;SDS011;50131;52.084;5.228;2022-08-19T03:12:40;23.0;;;20.9;;
63955;SDS011;50131;52.084;5.228;2022-08-19T03:14:18;22.6;;;20.6;;
63955;SDS011;50131;52.084;5.228;2022-08-19T03:17:30;20.5;;;18.41;;
63955;SDS011;50131;52.084;5.228;2022-08-19T03:19:06;21.9;;;19.5;;
63955;SDS011;50131;52.084;5.228;2022-08-19T03:20:43;21.3;;;19.2;;
63955;SDS011;50131;52.084;5.228;2022-08-19T03:23:59;24.8;;;22.3;;
63955;SDS011;50131;52.084;5.228;2022-08-19T03:25:43;27.3;;;24.8;;
63955;SDS011;50131;52.084;5.228;2022-08-19T03:27:24;23.0;;;20.7;;
63955;SDS011;50131;52.084;5.228;2022-08-19T03:29:01;23.4;;;20.11;;
63955;SDS011;50131;52.084;5.228;2022-08-19T03:32:19;25.8;;;23.1;;
63955;SDS011;50131;52.084;5.228;2022-08-19T03:33:55;21.6;;;18.11;;
63955;SDS011;50131;52.084;5.228;2022-08-19T03:35:31;20.0;;;18.0;;
63955;SDS011;50131;52.084;5.228;2022-08-19T03:38:49;25.1;;;22.5;;
63955;SDS011;50131;52.084;5.228;2022-08-19T03:40:30;20.41;;;18.3;;
63955;SDS011;50131;52.084;5.228;2022-08-19T03:42:06;21.0;;;18.8;;
63955;SDS011;50131;52.084;5.228;2022-08-19T03:43:46;24.2;;;21.1;;
63955;SDS011;50131;52.084;5.228;2022-08-19T03:47:00;24.6;;;20.0;;
63955;SDS011;50131;52.084;5.228;2022-08-19T03:48:37;25.1;;;20.2;;
63955;SDS011;50131;52.084;5.228;2022-08-19T03:50:14;24.5;;;20.41;;
63955;SDS011;50131;52.084;5.228;2022-08-19T03:51:52;23.5;;;21.0;;
63955;SDS011;50131;52.084;5.228;2022-08-19T03:55:08;20.9;;;18.7;;
63955;SDS011;50131;52.084;5.228;2022-08-19T03:56:45;20.11;;;18.0;;
63955;SDS011;50131;52.084;5.228;2022-08-19T03:58:24;20.5;;;18.11;;
63955;SDS011;50131;52.084;5.228;2022-08-19T04:01:42;21.0;;;18.7;;
63955;SDS011;50131;52.084;5.228;2022-08-19T04:03:19;20.7;;;18.61;;
63955;SDS011;50131;52.084;5.228;2022-08-19T04:04:55;24.7;;;19.41;;
63955;SDS011;50131;52.084;5.228;2022-08-19T04:06:31;25.0;;;21.2;;
63955;SDS011;50131;52.084;5.228;2022-08-19T04:09:47;24.7;;;22.0;;
63955;SDS011;50131;52.084;5.228;2022-08-19T04:11:24;24.4;;;21.8;;
63955;SDS011;50131;52.084;5.228;2022-08-19T04:13:04;26.1;;;23.6;;
63955;SDS011;50131;52.084;5.228;2022-08-19T04:16:17;28.6;;;26.0;;
63955;SDS011;50131;52.084;5.228;2022-08-19T04:17:56;29.0;;;26.4;;
63955;SDS011;50131;52.084;5.228;2022-08-19T04:19:32;26.9;;;24.1;;
63955;SDS011;50131;52.084;5.228;2022-08-19T04:21:14;23.3;;;20.9;;
63955;SDS011;50131;52.084;5.228;2022-08-19T04:24:29;23.1;;;20.7;;
63955;SDS011;50131;52.084;5.228;2022-08-19T04:26:06;23.7;;;21.1;;
63955;SDS011;50131;52.084;5.228;2022-08-19T04:27:46;24.1;;;21.6;;
63955;SDS011;50131;52.084;5.228;2022-08-19T04:31:01;27.4;;;24.6;;
63955;SDS011;50131;52.084;5.228;2022-08-19T04:32:37;25.4;;;21.0;;
63955;SDS011;50131;52.084;5.228;2022-08-19T04:34:16;31.4;;;25.2;;
63955;SDS011;50131;52.084;5.228;2022-08-19T04:35:58;24.8;;;21.9;;
63955;SDS011;50131;52.084;5.228;2022-08-19T04:39:12;28.6;;;22.7;;
63955;SDS011;50131;52.084;5.228;2022-08-19T04:43:47;27.1;;;24.0;;
63955;SDS011;50131;52.084;5.228;2022-08-19T04:45:23;28.7;;;25.6;;
63955;SDS011;50131;52.084;5.228;2022-08-19T04:47:00;31.5;;;25.7;;
63955;SDS011;50131;52.084;5.228;2022-08-19T04:48:37;28.4;;;23.7;;
63955;SDS011;50131;52.084;5.228;2022-08-19T04:51:54;30.2;;;24.4;;
63955;SDS011;50131;52.084;5.228;2022-08-19T04:53:31;27.2;;;23.0;;
63955;SDS011;50131;52.084;5.228;2022-08-19T04:55:10;28.5;;;23.3;;
63955;SDS011;50131;52.084;5.228;2022-08-19T04:56:49;28.5;;;23.3;;
63955;SDS011;50131;52.084;5.228;2022-08-19T05:00:04;26.8;;;22.9;;
63955;SDS011;50131;52.084;5.228;2022-08-19T05:01:42;29.5;;;25.7;;
63955;SDS011;50131;52.084;5.228;2022-08-19T05:03:18;31.1;;;27.0;;
63955;SDS011;50131;52.084;5.228;2022-08-19T05:06:34;31.1;;;27.2;;
63955;SDS011;50131;52.084;5.228;2022-08-19T05:08:12;35.81;;;27.1;;
63955;SDS011;50131;52.084;5.228;2022-08-19T05:09:50;30.1;;;24.8;;
63955;SDS011;50131;52.084;5.228;2022-08-19T05:11:27;33.9;;;24.7;;
63955;SDS011;50131;52.084;5.228;2022-08-19T05:14:49;34.0;;;25.6;;
63955;SDS011;50131;52.084;5.228;2022-08-19T05:16:25;40.1;;;26.5;;
63955;SDS011;50131;52.084;5.228;2022-08-19T05:24:29;34.5;;;26.3;;
63955;SDS011;50131;52.084;5.228;2022-08-19T05:26:06;35.9;;;25.7;;
63955;SDS011;50131;52.084;5.228;2022-08-19T05:29:20;34.21;;;23.7;;
63955;SDS011;50131;52.084;5.228;2022-08-19T05:30:57;32.71;;;23.8;;
63955;SDS011;50131;52.084;5.228;2022-08-19T05:32:33;34.4;;;23.6;;
63955;SDS011;50131;52.084;5.228;2022-08-19T05:35:49;43.2;;;29.2;;
63955;SDS011;50131;52.084;5.228;2022-08-19T05:37:27;41.3;;;28.3;;
63955;SDS011;50131;52.084;5.228;2022-08-19T05:39:04;35.81;;;25.2;;
63955;SDS011;50131;52.084;5.228;2022-08-19T05:40:41;40.71;;;29.8;;
63955;SDS011;50131;52.084;5.228;2022-08-19T05:43:57;40.4;;;28.8;;
63955;SDS011;50131;52.084;5.228;2022-08-19T05:45:37;39.1;;;29.9;;
63955;SDS011;50131;52.084;5.228;2022-08-19T05:47:15;38.6;;;28.3;;
63955;SDS011;50131;52.084;5.228;2022-08-19T05:50:30;42.3;;;28.0;;
63955;SDS011;50131;52.084;5.228;2022-08-19T05:52:07;42.5;;;30.9;;
63955;SDS011;50131;52.084;5.228;2022-08-19T05:53:46;48.3;;;33.4;;
63955;SDS011;50131;52.084;5.228;2022-08-19T05:55:23;43.7;;;32.5;;
63955;SDS011;50131;52.084;5.228;2022-08-19T05:58:38;48.4;;;34.31;;
63955;SDS011;50131;52.084;5.228;2022-08-19T06:00:15;47.4;;;34.6;;
63955;SDS011;50131;52.084;5.228;2022-08-19T06:01:54;46.1;;;32.1;;
63955;SDS011;50131;52.084;5.228;2022-08-19T06:05:10;45.0;;;31.9;;
63955;SDS011;50131;52.084;5.228;2022-08-19T06:06:47;57.9;;;36.5;;
63955;SDS011;50131;52.084;5.228;2022-08-19T06:08:24;45.9;;;32.5;;
63955;SDS011;50131;52.084;5.228;2022-08-19T06:10:02;48.1;;;34.81;;
63955;SDS011;50131;52.084;5.228;2022-08-19T06:13:20;50.2;;;34.21;;
63955;SDS011;50131;52.084;5.228;2022-08-19T06:14:57;58.3;;;38.4;;
63955;SDS011;50131;52.084;5.228;2022-08-19T06:16:36;52.8;;;35.31;;
63955;SDS011;50131;52.084;5.228;2022-08-19T06:19:51;51.6;;;34.4;;
63955;SDS011;50131;52.084;5.228;2022-08-19T06:21:28;67.6;;;43.2;;
63955;SDS011;50131;52.084;5.228;2022-08-19T06:23:06;57.2;;;38.21;;
63955;SDS011;50131;52.084;5.228;2022-08-19T06:24:43;54.1;;;34.81;;
63955;SDS011;50131;52.084;5.228;2022-08-19T06:27:57;60.6;;;38.4;;
63955;SDS011;50131;52.084;5.228;2022-08-19T06:29:34;69.61;;;42.5;;
63955;SDS011;50131;52.084;5.228;2022-08-19T06:31:14;74.91;;;42.3;;
63955;SDS011;50131;52.084;5.228;2022-08-19T06:34:30;77.2;;;44.0;;
63955;SDS011;50131;52.084;5.228;2022-08-19T06:36:15;80.8;;;45.2;;
63955;SDS011;50131;52.084;5.228;2022-08-19T06:37:54;86.8;;;47.9;;
63955;SDS011;50131;52.084;5.228;2022-08-19T06:39:31;96.4;;;51.0;;
63955;SDS011;50131;52.084;5.228;2022-08-19T06:42:50;88.4;;;47.1;;
63955;SDS011;50131;52.084;5.228;2022-08-19T06:44:29;97.6;;;54.9;;
63955;SDS011;50131;52.084;5.228;2022-08-19T06:46:10;98.6;;;54.0;;
63955;SDS011;50131;52.084;5.228;2022-08-19T06:47:48;95.2;;;51.5;;
63955;SDS011;50131;52.084;5.228;2022-08-19T06:51:08;78.3;;;46.2;;
63955;SDS011;50131;52.084;5.228;2022-08-19T06:52:44;84.7;;;47.8;;
63955;SDS011;50131;52.084;5.228;2022-08-19T06:54:20;87.8;;;49.0;;
63955;SDS011;50131;52.084;5.228;2022-08-19T06:56:00;96.5;;;50.7;;
63955;SDS011;50131;52.084;5.228;2022-08-19T06:59:13;80.8;;;51.1;;
63955;SDS011;50131;52.084;5.228;2022-08-19T07:01:01;85.2;;;51.6;;
63955;SDS011;50131;52.084;5.228;2022-08-19T07:02:39;75.0;;;50.8;;
63955;SDS011;50131;52.084;5.228;2022-08-19T07:05:55;78.91;;;46.7;;
63955;SDS011;50131;52.084;5.228;2022-08-19T07:07:34;77.11;;;49.1;;
63955;SDS011;50131;52.084;5.228;2022-08-19T07:09:12;95.9;;;51.0;;
63955;SDS011;50131;52.084;5.228;2022-08-19T07:10:53;84.7;;;49.8;;
63955;SDS011;50131;52.084;5.228;2022-08-19T07:14:07;76.3;;;50.6;;
63955;SDS011;50131;52.084;5.228;2022-08-19T07:15:46;77.41;;;50.7;;
63955;SDS011;50131;52.084;5.228;2022-08-19T07:17:22;75.11;;;51.4;;
63955;SDS011;50131;52.084;5.228;2022-08-19T07:18:59;93.5;;;53.8;;
63955;SDS011;50131;52.084;5.228;2022-08-19T07:22:14;81.91;;;52.3;;
63955;SDS011;50131;52.084;5.228;2022-08-19T07:23:51;75.5;;;50.2;;
63955;SDS011;50131;52.084;5.228;2022-08-19T07:25:28;77.3;;;48.7;;
63955;SDS011;50131;52.084;5.228;2022-08-19T07:28:43;87.3;;;51.6;;
63955;SDS011;50131;52.084;5.228;2022-08-19T07:30:23;71.91;;;48.5;;
63955;SDS011;50131;52.084;5.228;2022-08-19T07:31:59;70.11;;;42.2;;
63955;SDS011;50131;52.084;5.228;2022-08-19T07:33:37;76.7;;;49.8;;
63955;SDS011;50131;52.084;5.228;2022-08-19T07:36:50;70.11;;;54.1;;
63955;SDS011;50131;52.084;5.228;2022-08-19T07:38:28;72.3;;;54.2;;
63955;SDS011;50131;52.084;5.228;2022-08-19T07:40:05;74.5;;;59.0;;
63955;SDS011;50131;52.084;5.228;2022-08-19T07:43:26;69.8;;;58.3;;
63955;SDS011;50131;52.084;5.228;2022-08-19T07:45:03;73.3;;;56.5;;
63955;SDS011;50131;52.084;5.228;2022-08-19T07:46:45;67.1;;;58.7;;
63955;SDS011;50131;52.084;5.228;2022-08-19T07:48:28;73.61;;;61.5;;
63955;SDS011;50131;52.084;5.228;2022-08-19T07:51:47;71.2;;;63.5;;
63955;SDS011;50131;52.084;5.228;2022-08-19T07:53:25;70.2;;;62.8;;
63955;SDS011;50131;52.084;5.228;2022-08-19T07:55:04;75.7;;;62.6;;
63955;SDS011;50131;52.084;5.228;2022-08-19T07:56:42;70.8;;;63.9;;
63955;SDS011;50131;52.084;5.228;2022-08-19T07:59:58;69.11;;;62.1;;
63955;SDS011;50131;52.084;5.228;2022-08-19T08:01:35;72.11;;;65.2;;
63955;SDS011;50131;52.084;5.228;2022-08-19T08:03:12;69.61;;;62.9;;
63955;SDS011;50131;52.084;5.228;2022-08-19T08:09:29;70.41;;;63.8;;
63955;SDS011;50131;52.084;5.228;2022-08-19T08:11:08;69.41;;;62.6;;
63955;SDS011;50131;52.084;5.228;2022-08-19T08:12:45;69.3;;;62.4;;
63955;SDS011;50131;52.084;5.228;2022-08-19T08:14:23;66.0;;;59.0;;
63955;SDS011;50131;52.084;5.228;2022-08-19T08:16:03;63.4;;;56.8;;
63955;SDS011;50131;52.084;5.228;2022-08-19T08:17:40;77.0;;;60.2;;
63955;SDS011;50131;52.084;5.228;2022-08-19T08:20:56;77.0;;;60.2;;
63955;SDS011;50131;52.084;5.228;2022-08-19T08:23:38;64.8;;;58.2;;
63955;SDS011;50131;52.084;5.228;2022-08-19T08:25:14;61.9;;;53.3;;
63955;SDS011;50131;52.084;5.228;2022-08-19T08:26:56;66.41;;;59.5;;
63955;SDS011;50131;52.084;5.228;2022-08-19T08:28:35;70.8;;;63.7;;
63955;SDS011;50131;52.084;5.228;2022-08-19T08:30:12;82.3;;;64.5;;
63955;SDS011;50131;52.084;5.228;2022-08-19T08:33:30;69.61;;;62.6;;
63955;SDS011;50131;52.084;5.228;2022-08-19T08:35:08;94.8;;;71.5;;
63955;SDS011;50131;52.084;5.228;2022-08-19T08:36:48;64.91;;;58.4;;
63955;SDS011;50131;52.084;5.228;2022-08-19T08:40:02;71.5;;;64.1;;
63955;SDS011;50131;52.084;5.228;2022-08-19T08:41:43;71.11;;;64.0;;
63955;SDS011;50131;52.084;5.228;2022-08-19T08:43:33;71.2;;;63.8;;
63955;SDS011;50131;52.084;5.228;2022-08-19T08:45:15;74.91;;;66.7;;
63955;SDS011;50131;52.084;5.228;2022-08-19T08:46:55;71.7;;;64.8;;
63955;SDS011;50131;52.084;5.228;2022-08-19T08:50:21;60.6;;;54.3;;
63955;SDS011;50131;52.084;5.228;2022-08-19T08:52:05;64.41;;;57.7;;
63955;SDS011;50131;52.084;5.228;2022-08-19T08:53:48;75.7;;;58.8;;
63955;SDS011;50131;52.084;5.228;2022-08-19T08:55:27;62.7;;;56.4;;
63955;SDS011;50131;52.084;5.228;2022-08-19T08:58:56;60.4;;;54.4;;
63955;SDS011;50131;52.084;5.228;2022-08-19T09:00:38;69.3;;;55.8;;
63955;SDS011;50131;52.084;5.228;2022-08-19T09:02:20;57.1;;;51.6;;
63955;SDS011;50131;52.084;5.228;2022-08-19T09:03:56;64.6;;;58.7;;
63955;SDS011;50131;52.084;5.228;2022-08-19T09:07:29;101.4;;;56.6;;
63955;SDS011;50131;52.084;5.228;2022-08-19T09:09:32;63.8;;;56.9;;
63955;SDS011;50131;52.084;5.228;2022-08-19T09:11:15;56.0;;;50.7;;
63955;SDS011;50131;52.084;5.228;2022-08-19T09:13:07;74.3;;;46.9;;
63955;SDS011;50131;52.084;5.228;2022-08-19T09:15:01;43.7;;;39.4;;
63955;SDS011;50131;52.084;5.228;2022-08-19T09:16:41;44.1;;;39.9;;
63955;SDS011;50131;52.084;5.228;2022-08-19T09:18:18;46.5;;;41.9;;
63955;SDS011;50131;52.084;5.228;2022-08-19T09:21:35;62.5;;;40.5;;
63955;SDS011;50131;52.084;5.228;2022-08-19T09:23:11;42.7;;;35.9;;
63955;SDS011;50131;52.084;5.228;2022-08-19T09:24:48;45.5;;;36.31;;
63955;SDS011;50131;52.084;5.228;2022-08-19T09:28:03;37.31;;;32.3;;
63955;SDS011;50131;52.084;5.228;2022-08-19T09:29:39;45.5;;;36.4;;
63955;SDS011;50131;52.084;5.228;2022-08-19T09:31:16;43.1;;;34.9;;
63955;SDS011;50131;52.084;5.228;2022-08-19T09:33:00;43.9;;;39.1;;
63955;SDS011;50131;52.084;5.228;2022-08-19T09:36:15;46.5;;;39.21;;
63955;SDS011;50131;52.084;5.228;2022-08-19T09:37:54;47.5;;;37.1;;
63955;SDS011;50131;52.084;5.228;2022-08-19T09:39:30;40.0;;;33.21;;
63955;SDS011;50131;52.084;5.228;2022-08-19T09:42:48;53.3;;;38.1;;
63955;SDS011;50131;52.084;5.228;2022-08-19T09:44:24;45.1;;;37.6;;
63955;SDS011;50131;52.084;5.228;2022-08-19T09:46:00;41.4;;;36.31;;
63955;SDS011;50131;52.084;5.228;2022-08-19T09:47:38;38.9;;;34.71;;
63955;SDS011;50131;52.084;5.228;2022-08-19T09:50:52;40.21;;;35.21;;
63955;SDS011;50131;52.084;5.228;2022-08-19T09:52:28;42.3;;;35.5;;
63955;SDS011;50131;52.084;5.228;2022-08-19T09:54:04;42.1;;;36.6;;
63955;SDS011;50131;52.084;5.228;2022-08-19T09:57:18;41.1;;;36.71;;
63955;SDS011;50131;52.084;5.228;2022-08-19T09:58:54;43.2;;;38.5;;
63955;SDS011;50131;52.084;5.228;2022-08-19T10:00:30;51.5;;;40.9;;
63955;SDS011;50131;52.084;5.228;2022-08-19T10:02:09;44.1;;;37.9;;
63955;SDS011;50131;52.084;5.228;2022-08-19T10:05:57;43.6;;;38.9;;
63955;SDS011;50131;52.084;5.228;2022-08-19T10:07:35;41.7;;;37.21;;
63955;SDS011;50131;52.084;5.228;2022-08-19T10:09:12;45.4;;;40.4;;
63955;SDS011;50131;52.084;5.228;2022-08-19T10:10:50;60.0;;;43.7;;
63955;SDS011;50131;52.084;5.228;2022-08-19T10:14:05;47.1;;;42.3;;
63955;SDS011;50131;52.084;5.228;2022-08-19T10:15:43;47.6;;;42.5;;
63955;SDS011;50131;52.084;5.228;2022-08-19T10:17:20;52.1;;;47.2;;
63955;SDS011;50131;52.084;5.228;2022-08-19T10:18:56;45.9;;;41.1;;
63955;SDS011;50131;52.084;5.228;2022-08-19T10:22:13;48.8;;;43.7;;
63955;SDS011;50131;52.084;5.228;2022-08-19T10:23:52;40.5;;;36.4;;
63955;SDS011;50131;52.084;5.228;2022-08-19T10:25:32;53.6;;;48.3;;
63955;SDS011;50131;52.084;5.228;2022-08-19T10:28:46;51.7;;;46.3;;
63955;SDS011;50131;52.084;5.228;2022-08-19T10:30:23;47.2;;;42.2;;
63955;SDS011;50131;52.084;5.228;2022-08-19T10:32:00;52.6;;;46.3;;
63955;SDS011;50131;52.084;5.228;2022-08-19T10:33:38;54.8;;;43.6;;
63955;SDS011;50131;52.084;5.228;2022-08-19T10:36:52;51.6;;;46.2;;
63955;SDS011;50131;52.084;5.228;2022-08-19T10:38:28;47.7;;;42.8;;
63955;SDS011;50131;52.084;5.228;2022-08-19T10:40:06;49.8;;;44.3;;
63955;SDS011;50131;52.084;5.228;2022-08-19T10:43:20;50.4;;;41.9;;
63955;SDS011;50131;52.084;5.228;2022-08-19T10:44:57;48.6;;;43.4;;
63955;SDS011;50131;52.084;5.228;2022-08-19T10:46:36;63.1;;;48.6;;
63955;SDS011;50131;52.084;5.228;2022-08-19T10:48:16;50.6;;;43.4;;
63955;SDS011;50131;52.084;5.228;2022-08-19T10:52:46;73.5;;;48.6;;
63955;SDS011;50131;52.084;5.228;2022-08-19T10:56:50;42.3;;;37.31;;
63955;SDS011;50131;52.084;5.228;2022-08-19T10:58:26;53.2;;;42.0;;
63955;SDS011;50131;52.084;5.228;2022-08-19T11:00:03;75.41;;;45.9;;
63955;SDS011;50131;52.084;5.228;2022-08-19T11:01:40;48.2;;;41.8;;
63955;SDS011;50131;52.084;5.228;2022-08-19T11:03:19;43.7;;;38.81;;
63955;SDS011;50131;52.084;5.228;2022-08-19T11:04:56;46.2;;;38.81;;
63955;SDS011;50131;52.084;5.228;2022-08-19T11:08:11;43.4;;;35.0;;
63955;SDS011;50131;52.084;5.228;2022-08-19T11:09:47;47.1;;;37.81;;
63955;SDS011;50131;52.084;5.228;2022-08-19T11:11:24;43.6;;;37.1;;
63955;SDS011;50131;52.084;5.228;2022-08-19T11:14:36;49.2;;;37.4;;
63955;SDS011;50131;52.084;5.228;2022-08-19T11:16:14;48.8;;;36.4;;
63955;SDS011;50131;52.084;5.228;2022-08-19T11:17:53;40.5;;;32.3;;
63955;SDS011;50131;52.084;5.228;2022-08-19T11:19:31;40.31;;;33.21;;
63955;SDS011;50131;52.084;5.228;2022-08-19T11:22:49;43.4;;;31.9;;
63955;SDS011;50131;52.084;5.228;2022-08-19T11:24:27;42.0;;;34.21;;
63955;SDS011;50131;52.084;5.228;2022-08-19T11:26:04;40.81;;;32.0;;
63955;SDS011;50131;52.084;5.228;2022-08-19T11:29:20;43.6;;;32.3;;
63955;SDS011;50131;52.084;5.228;2022-08-19T11:30:58;38.81;;;30.9;;
63955;SDS011;50131;52.084;5.228;2022-08-19T11:32:36;43.2;;;33.21;;
63955;SDS011;50131;52.084;5.228;2022-08-19T11:34:18;44.1;;;33.5;;
63955;SDS011;50131;52.084;5.228;2022-08-19T11:37:37;64.0;;;38.0;;
63955;SDS011;50131;52.084;5.228;2022-08-19T11:39:14;41.6;;;37.0;;
63955;SDS011;50131;52.084;5.228;2022-08-19T11:40:54;47.9;;;36.9;;
63955;SDS011;50131;52.084;5.228;2022-08-19T11:43:04;43.9;;;37.21;;
63955;SDS011;50131;52.084;5.228;2022-08-19T11:44:40;43.8;;;37.4;;
63955;SDS011;50131;52.084;5.228;2022-08-19T11:47:53;41.1;;;36.6;;
63955;SDS011;50131;52.084;5.228;2022-08-19T11:49:31;42.1;;;37.5;;
63955;SDS011;50131;52.084;5.228;2022-08-19T11:51:09;36.6;;;30.9;;
63955;SDS011;50131;52.084;5.228;2022-08-19T11:54:30;41.9;;;37.5;;
63955;SDS011;50131;52.084;5.228;2022-08-19T11:56:07;40.0;;;34.31;;
63955;SDS011;50131;52.084;5.228;2022-08-19T11:57:46;61.8;;;35.9;;
63955;SDS011;50131;52.084;5.228;2022-08-19T11:59:22;58.9;;;40.6;;
63955;SDS011;50131;52.084;5.228;2022-08-19T12:02:35;54.9;;;40.5;;
63955;SDS011;50131;52.084;5.228;2022-08-19T12:04:12;39.21;;;34.81;;
63955;SDS011;50131;52.084;5.228;2022-08-19T12:05:49;73.61;;;45.3;;
63955;SDS011;50131;52.084;5.228;2022-08-19T12:09:03;56.7;;;51.3;;
63955;SDS011;50131;52.084;5.228;2022-08-19T12:10:43;51.2;;;46.0;;
63955;SDS011;50131;52.084;5.228;2022-08-19T12:12:19;55.6;;;49.6;;
63955;SDS011;50131;52.084;5.228;2022-08-19T12:13:57;54.8;;;49.5;;
63955;SDS011;50131;52.084;5.228;2022-08-19T12:17:11;57.8;;;45.3;;
63955;SDS011;50131;52.084;5.228;2022-08-19T12:18:51;64.6;;;59.1;;
63955;SDS011;50131;52.084;5.228;2022-08-19T12:20:27;57.8;;;52.3;;
63955;SDS011;50131;52.084;5.228;2022-08-19T12:23:41;69.5;;;63.7;;
63955;SDS011;50131;52.084;5.228;2022-08-19T12:25:19;76.0;;;70.2;;
63955;SDS011;50131;52.084;5.228;2022-08-19T12:26:56;71.61;;;66.2;;
63955;SDS011;50131;52.084;5.228;2022-08-19T12:28:33;61.7;;;56.3;;
63955;SDS011;50131;52.084;5.228;2022-08-19T12:31:48;60.8;;;54.9;;
63955;SDS011;50131;52.084;5.228;2022-08-19T12:33:27;45.0;;;40.5;;
63955;SDS011;50131;52.084;5.228;2022-08-19T12:35:04;60.2;;;42.8;;
63955;SDS011;50131;52.084;5.228;2022-08-19T12:38:18;61.7;;;45.9;;
63955;SDS011;50131;52.084;5.228;2022-08-19T12:39:55;50.1;;;45.8;;
63955;SDS011;50131;52.084;5.228;2022-08-19T12:41:32;40.1;;;36.31;;
63955;SDS011;50131;52.084;5.228;2022-08-19T12:44:45;31.3;;;28.5;;
63955;SDS011;50131;52.084;5.228;2022-08-19T12:46:21;89.3;;;36.6;;